createdAt,value
2023-05-23T00:02:39.492Z,5.05
2023-05-23T00:06:57.657Z,6.25
2023-05-23T00:11:15.704Z,3.75
2023-05-23T00:15:34.419Z,3.80
2023-05-23T00:19:52.030Z,4.13
2023-05-23T00:24:10.774Z,5.00
2023-05-23T00:28:30.125Z,3.65
2023-05-23T00:32:47.728Z,3.53
2023-05-23T00:37:05.934Z,3.13
2023-05-23T00:41:26.329Z,8.45
2023-05-23T00:45:43.912Z,3.92
2023-05-23T00:50:03.353Z,3.03
2023-05-23T00:54:33.476Z,3.17
2023-05-23T00:58:51.613Z,4.03
2023-05-23T01:07:28.594Z,3.05
2023-05-23T01:12:00.048Z,4.53
2023-05-23T01:16:38.779Z,4.45
2023-05-23T01:21:03.202Z,3.20
2023-05-23T01:26:14.549Z,5.18
2023-05-23T01:30:35.685Z,10.77
2023-05-23T01:34:54.594Z,3.72
2023-05-23T01:39:13.523Z,3.38
2023-05-23T01:43:31.231Z,4.18
2023-05-23T01:47:51.512Z,8.13
2023-05-23T01:52:12.751Z,5.20
2023-05-23T01:56:30.706Z,4.97
2023-05-23T02:00:48.874Z,4.68
2023-05-23T02:05:07.021Z,3.58
2023-05-23T02:13:43.025Z,4.63
2023-05-23T02:22:27.469Z,3.75
2023-05-23T02:26:46.260Z,4.78
2023-05-23T02:31:04.411Z,5.78
2023-05-23T02:35:22.556Z,4.32
2023-05-23T02:43:58.973Z,5.78
2023-05-23T02:48:17.648Z,3.30
2023-05-23T02:52:36.850Z,3.05
2023-05-23T02:56:55.088Z,4.97
2023-05-23T03:01:12.724Z,3.97
2023-05-23T03:05:30.262Z,4.40
2023-05-23T03:09:48.520Z,5.65
2023-05-23T03:14:06.942Z,4.85
2023-05-23T03:18:25.199Z,3.72
2023-05-23T03:22:45.951Z,4.28
2023-05-23T03:27:05.277Z,5.22
2023-05-23T03:31:23.428Z,6.90
2023-05-23T03:35:41.873Z,2.90
2023-05-23T03:39:59.586Z,9.68
2023-05-23T03:44:17.612Z,5.68
2023-05-23T03:52:54.639Z,4.53
2023-05-23T03:57:13.519Z,3.50
2023-05-23T04:01:31.957Z,8.70
2023-05-23T04:05:50.082Z,10.00
2023-05-23T04:14:27.744Z,5.22
2023-05-23T04:18:47.730Z,6.32
2023-05-23T04:23:05.705Z,3.78
2023-05-23T04:27:26.234Z,5.25
2023-05-23T04:31:46.928Z,6.85
2023-05-23T04:36:05.558Z,3.53
2023-05-23T04:40:25.802Z,5.65
2023-05-23T04:44:45.151Z,4.40
2023-05-23T04:49:04.283Z,3.17
2023-05-23T04:53:25.940Z,3.83
2023-05-23T04:57:43.769Z,3.53
2023-05-23T05:02:02.285Z,3.00
2023-05-23T05:06:21.449Z,3.65
2023-05-23T05:10:41.533Z,3.97
2023-05-23T05:14:59.707Z,4.88
2023-05-23T05:19:18.308Z,4.85
2023-05-23T05:27:54.203Z,2.85
2023-05-23T05:32:12.389Z,5.03
2023-05-23T05:40:48.213Z,3.63
2023-05-23T05:45:07.311Z,3.47
2023-05-23T05:49:24.860Z,4.05
2023-05-23T05:53:42.564Z,5.82
2023-05-23T05:58:01.530Z,5.70
2023-05-23T06:02:19.097Z,2.80
2023-05-23T06:06:38.045Z,3.22
2023-05-23T06:10:57.038Z,3.67
2023-05-23T06:15:16.701Z,10.55
2023-05-23T06:19:37.262Z,4.18
2023-05-23T06:23:54.895Z,6.72
2023-05-23T06:28:13.331Z,3.63
2023-05-23T06:32:30.993Z,2.72
2023-05-23T06:36:49.147Z,8.23
2023-05-23T06:41:07.470Z,3.97
2023-05-23T06:45:26.358Z,3.20
2023-05-23T06:49:44.439Z,3.33
2023-05-23T06:58:22.679Z,3.88
2023-05-23T07:02:42.035Z,3.70
2023-05-23T07:07:00.033Z,2.72
2023-05-23T07:11:18.727Z,4.75
2023-05-23T07:15:36.376Z,2.90
2023-05-23T07:24:12.002Z,3.25
2023-05-23T07:32:49.777Z,3.22
2023-05-23T07:41:26.580Z,7.00
2023-05-23T07:45:44.213Z,3.50
2023-05-23T07:50:07.717Z,2.40
2023-05-23T07:54:25.293Z,2.97
2023-05-23T07:58:43.406Z,3.70
2023-05-23T08:03:01.149Z,2.53
2023-05-23T08:07:19.749Z,2.80
2023-05-23T08:15:54.999Z,1.80
2023-05-23T08:20:14.066Z,1.77
2023-05-23T08:28:50.089Z,4.13
2023-05-23T08:33:08.230Z,6.72
2023-05-23T08:37:26.508Z,4.63
2023-05-23T08:41:44.529Z,4.32
2023-05-23T08:46:05.138Z,2.75
2023-05-23T08:50:23.631Z,4.65
2023-05-23T08:54:43.131Z,7.43
2023-05-23T08:59:01.531Z,4.45
2023-05-23T09:03:19.534Z,3.05
2023-05-23T09:07:38.005Z,2.53
2023-05-23T09:12:00.924Z,3.13
2023-05-23T09:16:20.568Z,3.40
2023-05-23T09:20:41.929Z,2.75
2023-05-23T09:25:01.415Z,3.92
2023-05-23T09:29:23.236Z,2.50
2023-05-23T09:33:48.281Z,3.22
2023-05-23T09:38:08.382Z,3.95
2023-05-23T09:42:26.901Z,4.43
2023-05-23T09:46:45.708Z,3.72
2023-05-23T09:51:09.951Z,3.72
2023-05-23T09:55:27.937Z,5.95
2023-05-23T09:59:55.704Z,2.35
2023-05-23T10:04:17.525Z,2.85
2023-05-23T10:08:43.768Z,5.55
2023-05-23T10:13:07.249Z,2.67
2023-05-23T10:17:35.033Z,3.88
2023-05-23T10:22:03.413Z,1.90
2023-05-23T10:26:22.995Z,1.90
2023-05-23T10:30:41.666Z,3.42
2023-05-23T10:35:11.673Z,3.88
2023-05-23T10:39:57.924Z,2.65
2023-05-23T10:44:31.611Z,4.35
2023-05-23T10:48:57.555Z,1.88
2023-05-23T10:53:17.365Z,2.10
2023-05-23T10:57:35.976Z,6.55
2023-05-23T11:01:54.187Z,1.80
2023-05-23T11:06:32.632Z,3.97
2023-05-23T11:11:03.010Z,2.85
2023-05-23T11:15:22.258Z,3.85
2023-05-23T11:19:40.669Z,2.78
2023-05-23T11:23:59.372Z,5.88
2023-05-23T11:28:18.317Z,2.35
2023-05-23T11:32:37.664Z,3.08
2023-05-23T11:36:57.437Z,4.32
2023-05-23T11:41:15.221Z,3.83
2023-05-23T11:45:34.826Z,2.70
2023-05-23T11:49:52.468Z,2.03
2023-05-23T11:54:11.104Z,4.20
2023-05-23T11:58:36.913Z,3.03
2023-05-23T12:02:55.044Z,7.28
2023-05-23T12:07:13.304Z,5.40
2023-05-23T12:11:36.573Z,3.03
2023-05-23T12:16:00.491Z,1.75
2023-05-23T12:20:20.092Z,3.05
2023-05-23T12:24:46.968Z,4.75
2023-05-23T12:29:06.417Z,1.60
2023-05-23T12:33:25.395Z,2.55
2023-05-23T12:37:49.957Z,2.42
2023-05-23T12:42:09.804Z,3.30
2023-05-23T12:46:28.530Z,5.38
2023-05-23T12:50:46.355Z,2.80
2023-05-23T12:55:06.430Z,2.25
2023-05-23T12:59:24.558Z,3.42
2023-05-23T13:03:42.826Z,3.45
2023-05-23T13:08:00.455Z,2.45
2023-05-23T13:12:18.917Z,3.25
2023-05-23T13:16:37.698Z,2.95
2023-05-23T13:20:55.629Z,2.15
2023-05-23T13:25:13.557Z,2.30
2023-05-23T13:29:31.665Z,2.65
2023-05-23T13:33:52.148Z,4.15
2023-05-23T13:38:10.037Z,5.57
2023-05-23T13:42:28.481Z,3.05
2023-05-23T13:46:46.835Z,1.88
2023-05-23T13:51:04.837Z,4.13
2023-05-23T13:55:23.243Z,6.93
2023-05-23T13:59:41.931Z,8.95
2023-05-23T14:03:59.496Z,5.63
2023-05-23T14:08:18.103Z,9.93
2023-05-23T14:12:36.149Z,13.65
2023-05-23T14:21:11.896Z,8.18
2023-05-23T14:25:32.062Z,5.25
2023-05-23T14:29:50.036Z,8.65
2023-05-23T14:34:08.978Z,5.35
2023-05-23T14:38:27.373Z,3.92
2023-05-23T14:42:47.108Z,7.82
2023-05-23T14:47:05.022Z,5.80
2023-05-23T14:56:00.876Z,5.45
2023-05-23T15:04:38.793Z,3.30
2023-05-23T15:08:57.019Z,18.73
2023-05-23T15:13:15.328Z,7.60
2023-05-23T15:17:34.969Z,5.00
2023-05-23T15:21:52.859Z,10.88
2023-05-23T15:26:11.383Z,7.82
2023-05-23T15:30:28.956Z,6.78
2023-05-23T15:34:46.945Z,9.07
2023-05-23T15:39:08.223Z,4.93
2023-05-23T15:43:26.811Z,9.68
2023-05-23T15:47:44.563Z,6.70
2023-05-23T15:56:20.267Z,6.65
2023-05-23T16:00:38.756Z,5.47
2023-05-23T16:04:58.347Z,6.80
2023-05-23T16:09:16.124Z,6.38
2023-05-23T16:13:34.732Z,9.02
2023-05-23T16:17:53.250Z,9.30
2023-05-23T16:22:11.547Z,7.30
2023-05-23T16:26:29.182Z,5.72
2023-05-23T16:30:49.750Z,6.60
2023-05-23T16:35:08.460Z,5.28
2023-05-23T16:39:27.360Z,5.82
2023-05-23T16:43:45.126Z,11.93
2023-05-23T16:48:03.634Z,6.05
2023-05-23T16:52:21.548Z,9.35
2023-05-23T16:56:40.746Z,6.35
2023-05-23T17:00:59.737Z,9.25
2023-05-23T17:05:17.408Z,9.20
2023-05-23T17:09:40.489Z,7.72
2023-05-23T17:13:58.644Z,6.57
2023-05-23T17:18:16.606Z,6.68
2023-05-23T17:22:34.909Z,6.43
2023-05-23T17:26:53.347Z,6.97
2023-05-23T17:31:12.319Z,8.00
2023-05-23T17:35:35.066Z,6.15
2023-05-23T17:39:55.254Z,5.28
2023-05-23T17:44:14.661Z,7.47
2023-05-23T17:53:07.107Z,9.20
2023-05-23T17:57:25.253Z,9.02
2023-05-23T18:01:44.048Z,7.32
2023-05-23T18:06:03.161Z,8.98
2023-05-23T18:10:21.891Z,10.52
2023-05-23T18:14:40.447Z,10.55
2023-05-23T18:19:00.238Z,6.68
2023-05-23T18:23:18.073Z,9.70
2023-05-23T18:27:36.580Z,10.32
2023-05-23T18:31:55.104Z,20.35
2023-05-23T18:36:13.347Z,12.25
2023-05-23T18:40:32.002Z,11.95
2023-05-23T18:44:51.076Z,8.60
2023-05-23T18:49:09.847Z,8.63
2023-05-23T18:53:28.378Z,13.65
2023-05-23T18:57:46.665Z,11.70
2023-05-23T19:02:05.265Z,10.80
2023-05-23T19:06:24.087Z,8.10
2023-05-23T19:10:42.784Z,11.63
2023-05-23T19:15:02.248Z,8.95
2023-05-23T19:19:21.414Z,10.48
2023-05-23T19:23:40.195Z,12.13
2023-05-23T19:27:58.005Z,11.73
2023-05-23T19:32:16.976Z,10.98
2023-05-23T19:36:37.236Z,10.55
2023-05-23T19:40:55.855Z,11.93
2023-05-23T19:45:15.108Z,10.98
2023-05-23T19:53:52.261Z,9.50
2023-05-23T19:58:12.008Z,7.78
2023-05-23T20:02:30.145Z,9.88
2023-05-23T20:06:48.068Z,9.73
2023-05-23T20:11:07.134Z,10.65
2023-05-23T20:15:38.612Z,9.23
2023-05-23T20:19:58.424Z,9.38
2023-05-23T20:24:16.448Z,7.63
2023-05-23T20:28:35.984Z,10.85
2023-05-23T20:32:55.461Z,12.23
2023-05-23T20:37:13.924Z,11.30
2023-05-23T20:41:34.025Z,10.13
2023-05-23T20:45:52.175Z,9.18
2023-05-23T20:50:11.374Z,12.57
2023-05-23T20:54:31.009Z,8.05
2023-05-23T20:58:49.764Z,10.02
2023-05-23T21:03:07.346Z,9.38
2023-05-23T21:07:25.373Z,10.23
2023-05-23T21:16:01.742Z,11.63
2023-05-23T21:20:22.083Z,8.88
2023-05-23T21:24:42.956Z,9.65
2023-05-23T21:29:01.022Z,15.95
2023-05-23T21:33:21.737Z,12.30
2023-05-23T21:37:39.359Z,9.30
2023-05-23T21:41:57.355Z,10.10
2023-05-23T21:46:17.008Z,6.35
2023-05-23T21:50:34.623Z,10.38
2023-05-23T21:54:53.199Z,11.63
2023-05-23T21:59:10.960Z,10.32
2023-05-23T22:03:29.151Z,10.15
2023-05-23T22:07:47.477Z,11.80
2023-05-23T22:12:05.681Z,10.00
2023-05-23T22:16:24.162Z,9.48
2023-05-23T22:20:42.068Z,9.80
2023-05-23T22:29:17.950Z,13.07
2023-05-23T22:33:36.737Z,14.63
2023-05-23T22:37:55.050Z,8.75
2023-05-23T22:42:12.646Z,12.27
2023-05-23T22:46:32.699Z,9.30
2023-05-23T22:50:54.331Z,9.60
2023-05-23T22:55:12.503Z,9.38
2023-05-23T22:59:31.092Z,10.10
2023-05-23T23:03:49.191Z,12.82
2023-05-23T23:08:07.106Z,11.75
2023-05-23T23:12:24.658Z,7.68
2023-05-23T23:21:01.300Z,10.38
2023-05-23T23:25:19.322Z,9.40
2023-05-23T23:33:55.196Z,10.05
2023-05-23T23:38:12.800Z,12.88
2023-05-23T23:42:31.543Z,9.43
2023-05-23T23:46:49.834Z,7.85
2023-05-23T23:51:07.945Z,8.70
2023-05-23T23:55:26.432Z,9.93
2023-05-23T23:59:46.536Z,9.70
